Time;durP1;ratioP1;P1;durP2;ratioP2;P2;SDS_P1;SDS_P2;PMS_P1;PMS_P2;Temp;Humidity;BMP_temperature;BMP_pressure;BME280_temperature;BME280_humidity;BME280_pressure;Samples;Min_cycle;Max_cycle;Signal;HPM_P1;HPM_P2
2021/09/27 00:00:52;;;;;;;10.07;9.10;;;18.20;77.60;;;;;;5081698;28;20028;-71
2021/09/27 00:03:18;;;;;;;10.52;9.40;;;18.20;77.80;;;;;;5068601;28;20020;-71
2021/09/27 00:05:45;;;;;;;11.43;9.32;;;18.20;77.90;;;;;;5080461;28;20097;-71
2021/09/27 00:08:10;;;;;;;10.45;9.45;;;18.10;77.60;;;;;;5076293;28;20035;-71
2021/09/27 00:11:07;;;;;;;11.57;9.50;;;18.10;77.80;;;;;;5072655;28;20437;-70
2021/09/27 00:13:37;;;;;;;9.98;8.98;;;18.10;77.90;;;;;;5034327;28;20040;-70
2021/09/27 00:16:04;;;;;;;10.63;9.25;;;18.10;77.80;;;;;;5071964;28;20519;-70
2021/09/27 00:18:30;;;;;;;10.35;9.23;;;18.10;77.80;;;;;;5089225;28;20028;-70
2021/09/27 00:21:03;;;;;;;11.10;9.95;;;18.00;77.80;;;;;;5080905;28;20439;-71
2021/09/27 00:23:32;;;;;;;11.43;9.13;;;18.00;77.80;;;;;;5088327;28;20457;-70
2021/09/27 00:25:59;;;;;;;11.45;9.68;;;18.00;77.90;;;;;;5071685;28;20492;-70
2021/09/27 00:28:25;;;;;;;10.23;9.32;;;18.00;77.90;;;;;;5075229;28;20023;-70
2021/09/27 00:30:53;;;;;;;10.30;9.27;;;17.90;77.80;;;;;;5071600;28;20048;-70
2021/09/27 00:33:21;;;;;;;11.30;10.23;;;17.90;77.80;;;;;;5068767;28;20013;-71
2021/09/27 00:35:47;;;;;;;11.30;9.52;;;17.80;77.80;;;;;;5070571;28;20055;-71
2021/09/27 00:38:13;;;;;;;11.18;10.18;;;17.80;77.80;;;;;;5077439;28;20552;-71
2021/09/27 00:40:43;;;;;;;11.07;9.90;;;17.80;78.00;;;;;;5076139;28;20040;-71
2021/09/27 00:43:09;;;;;;;10.38;9.48;;;17.80;78.00;;;;;;5082170;28;20036;-71
2021/09/27 00:45:40;;;;;;;11.00;9.80;;;17.80;77.90;;;;;;5087703;28;20134;-70
2021/09/27 00:48:07;;;;;;;10.18;9.18;;;17.80;77.90;;;;;;5072376;28;20521;-70
2021/09/27 00:50:37;;;;;;;13.63;10.32;;;17.70;77.80;;;;;;5080188;28;20032;-70
2021/09/27 00:53:13;;;;;;;12.10;10.07;;;17.70;77.80;;;;;;5082735;28;20107;-72
2021/09/27 00:55:38;;;;;;;10.77;9.68;;;17.70;77.80;;;;;;5087050;28;20424;-70
2021/09/27 00:58:05;;;;;;;12.25;10.60;;;17.70;77.80;;;;;;5078609;28;20048;-71
2021/09/27 01:00:31;;;;;;;12.85;10.55;;;17.70;78.20;;;;;;5060858;28;20052;-70
2021/09/27 01:02:57;;;;;;;11.23;10.07;;;17.60;78.00;;;;;;5078037;28;20485;-70
2021/09/27 01:05:24;;;;;;;11.23;10.07;;;17.60;78.70;;;;;;5085980;28;20076;-71
2021/09/27 01:08:08;;;;;;;11.05;9.95;;;17.60;78.10;;;;;;5081682;28;20037;-70
2021/09/27 01:11:06;;;;;;;12.45;11.23;;;17.50;77.90;;;;;;5078887;28;20521;-70
2021/09/27 01:14:18;;;;;;;12.20;10.35;;;17.60;78.00;;;;;;5078679;28;20035;-72
2021/09/27 01:16:49;;;;;;;11.80;10.70;;;17.50;78.10;;;;;;5063385;28;20395;-70
2021/09/27 01:19:36;;;;;;;12.10;10.90;;;17.50;78.10;;;;;;5086305;28;20513;-70
2021/09/27 01:22:46;;;;;;;12.57;10.20;;;17.40;78.30;;;;;;5070466;28;20037;-70
2021/09/27 01:25:50;;;;;;;13.13;10.95;;;17.40;78.30;;;;;;5081433;28;20052;-70
2021/09/27 01:28:44;;;;;;;11.90;10.63;;;17.40;78.50;;;;;;5081268;28;20054;-72
2021/09/27 01:31:34;;;;;;;11.45;10.32;;;17.40;78.50;;;;;;5074322;28;20375;-71
2021/09/27 01:34:15;;;;;;;12.43;11.20;;;17.30;78.40;;;;;;5072050;28;20029;-70
2021/09/27 01:36:59;;;;;;;12.10;10.90;;;17.30;78.50;;;;;;5073962;28;20031;-70
2021/09/27 01:40:07;;;;;;;12.75;11.45;;;17.30;78.60;;;;;;5076146;28;20025;-70
2021/09/27 01:42:44;;;;;;;14.43;11.13;;;17.30;78.70;;;;;;5078933;28;20044;-70
2021/09/27 01:45:48;;;;;;;11.77;10.57;;;17.20;78.40;;;;;;5077956;28;20111;-70
2021/09/27 01:48:17;;;;;;;15.05;11.50;;;17.20;78.50;;;;;;5088329;28;20435;-70
2021/09/27 01:50:58;;;;;;;12.88;11.57;;;17.20;78.50;;;;;;5079291;28;20363;-70
2021/09/27 01:53:30;;;;;;;13.05;11.85;;;17.20;78.60;;;;;;5083979;28;20390;-70
2021/09/27 01:55:55;;;;;;;;;;;17.20;78.80;;;;;;5078137;28;20031;-70
2021/09/27 01:58:25;;;;;;;12.35;11.15;;;17.10;78.70;;;;;;5091317;28;19908;-69
2021/09/27 02:00:59;;;;;;;12.65;11.45;;;17.10;79.00;;;;;;5070916;28;20048;-71
2021/09/27 02:03:40;;;;;;;11.98;10.77;;;17.10;79.20;;;;;;5071304;28;20111;-71
2021/09/27 02:06:21;;;;;;;13.40;12.00;;;17.10;79.00;;;;;;5071010;28;20043;-71
2021/09/27 02:08:54;;;;;;;13.20;11.23;;;17.10;79.20;;;;;;5073806;28;20025;-71
2021/09/27 02:11:26;;;;;;;12.57;11.27;;;17.10;79.10;;;;;;5082091;28;20024;-70
2021/09/27 02:14:13;;;;;;;12.80;11.60;;;17.00;79.10;;;;;;5081501;28;20331;-71
2021/09/27 02:17:11;;;;;;;13.02;11.32;;;17.00;79.10;;;;;;5071245;28;20034;-71
2021/09/27 02:19:55;;;;;;;13.10;11.75;;;17.00;79.00;;;;;;5070739;28;20081;-71
2021/09/27 02:22:42;;;;;;;12.48;10.90;;;17.00;79.20;;;;;;5075035;28;20031;-71
2021/09/27 02:25:33;;;;;;;13.10;11.57;;;17.00;79.20;;;;;;5079332;28;20578;-71
2021/09/27 02:28:14;;;;;;;12.02;10.85;;;16.90;79.20;;;;;;5074145;28;20033;-71
2021/09/27 02:31:18;;;;;;;12.55;11.27;;;16.90;79.20;;;;;;5068462;28;20128;-70
2021/09/27 02:33:59;;;;;;;12.77;11.35;;;16.90;79.10;;;;;;5070067;28;20025;-69
2021/09/27 02:36:36;;;;;;;12.45;11.15;;;16.90;79.00;;;;;;5072169;28;20479;-70
2021/09/27 02:39:02;;;;;;;14.40;12.48;;;16.90;79.00;;;;;;5075726;28;20044;-70
2021/09/27 02:41:54;;;;;;;12.23;11.02;;;16.80;79.20;;;;;;5072016;28;20696;-70
2021/09/27 02:44:20;;;;;;;;;;;16.80;79.30;;;;;;5090113;28;20032;-70
2021/09/27 02:46:56;;;;;;;13.43;12.02;;;16.80;79.20;;;;;;5090109;28;19965;-70
2021/09/27 02:49:28;;;;;;;12.13;10.75;;;16.80;79.20;;;;;;5070261;28;20040;-70
2021/09/27 02:51:58;;;;;;;12.88;11.63;;;16.70;79.10;;;;;;5083976;28;20437;-70
2021/09/27 02:54:38;;;;;;;13.27;11.88;;;16.70;79.10;;;;;;5086602;28;20069;-69
2021/09/27 02:57:31;;;;;;;13.10;11.82;;;16.70;79.20;;;;;;5073696;28;20111;-71
2021/09/27 03:00:08;;;;;;;12.13;11.02;;;16.70;79.30;;;;;;5069537;28;20096;-70
2021/09/27 03:02:42;;;;;;;13.95;12.25;;;16.70;79.60;;;;;;5070067;28;20033;-70
2021/09/27 03:05:31;;;;;;;13.07;11.75;;;16.70;79.70;;;;;;5074099;28;20032;-70
2021/09/27 03:07:59;;;;;;;12.90;11.70;;;16.70;79.80;;;;;;5069647;28;20081;-70
2021/09/27 03:11:02;;;;;;;14.70;12.55;;;16.70;79.90;;;;;;5082801;28;20374;-71
2021/09/27 03:14:07;;;;;;;15.95;12.60;;;16.70;80.10;;;;;;5069725;28;20032;-71
2021/09/27 03:16:35;;;;;;;14.15;12.63;;;16.70;80.00;;;;;;5076334;28;20067;-70
2021/09/27 03:19:04;;;;;;;12.93;11.55;;;16.60;79.90;;;;;;5069766;28;20085;-71
2021/09/27 03:21:43;;;;;;;13.18;11.63;;;16.60;79.90;;;;;;5076570;28;20024;-71
2021/09/27 03:24:43;;;;;;;13.43;12.13;;;16.60;79.90;;;;;;5068459;28;20032;-70
2021/09/27 03:27:39;;;;;;;13.43;11.40;;;16.60;79.90;;;;;;5058832;28;20076;-71
2021/09/27 03:30:10;;;;;;;18.92;12.30;;;16.50;79.70;;;;;;5077339;28;20051;-70
2021/09/27 03:33:20;;;;;;;14.75;13.10;;;16.50;79.70;;;;;;5082328;28;20043;-71
2021/09/27 03:35:55;;;;;;;13.02;11.82;;;16.50;79.90;;;;;;4997580;28;20037;-71
2021/09/27 03:38:50;;;;;;;12.57;11.23;;;16.50;79.80;;;;;;4993493;28;20547;-71
2021/09/27 03:41:16;;;;;;;15.90;12.10;;;16.40;79.70;;;;;;5046867;28;20040;-71
2021/09/27 03:43:50;;;;;;;14.35;11.95;;;16.40;79.70;;;;;;5080610;28;20071;-70
2021/09/27 03:46:41;;;;;;;12.07;10.98;;;16.40;79.60;;;;;;5084995;28;20393;-70
2021/09/27 03:49:13;;;;;;;14.27;12.38;;;16.40;79.60;;;;;;5083030;28;20393;-70
2021/09/27 03:51:39;;;;;;;;;;;16.40;79.80;;;;;;5071322;28;20538;-70
2021/09/27 03:54:18;;;;;;;13.27;12.05;;;16.30;79.70;;;;;;5085592;28;19904;-71
2021/09/27 03:56:57;;;;;;;14.85;13.27;;;16.30;79.90;;;;;;5076169;28;20123;-70
2021/09/27 04:00:14;;;;;;;15.63;12.32;;;16.30;79.80;;;;;;5069001;28;20116;-70
2021/09/27 04:02:56;;;;;;;13.57;12.18;;;16.30;80.00;;;;;;5026668;28;20380;-70
2021/09/27 04:05:52;;;;;;;14.50;12.05;;;16.30;80.10;;;;;;5083452;28;20588;-70
2021/09/27 04:08:27;;;;;;;14.23;12.10;;;16.30;80.40;;;;;;5072739;28;20093;-70
2021/09/27 04:11:11;;;;;;;15.07;13.40;;;16.30;80.70;;;;;;5070040;28;20036;-70
2021/09/27 04:14:12;;;;;;;15.20;12.48;;;16.20;81.00;;;;;;5071434;28;20024;-70
2021/09/27 04:16:56;;;;;;;14.60;13.10;;;16.30;81.20;;;;;;5076289;28;20360;-70
2021/09/27 04:19:34;;;;;;;14.52;12.63;;;16.30;81.30;;;;;;5085967;28;20036;-70
2021/09/27 04:22:27;;;;;;;17.48;14.52;;;16.30;81.40;;;;;;5080944;28;20032;-70
2021/09/27 04:25:08;;;;;;;16.58;13.27;;;16.30;81.80;;;;;;5055375;28;20063;-70
2021/09/27 04:27:46;;;;;;;15.15;13.55;;;16.30;82.10;;;;;;5087238;28;20036;-70
2021/09/27 04:30:24;;;;;;;15.95;14.05;;;16.30;82.40;;;;;;5087588;28;20030;-70
2021/09/27 04:33:05;;;;;;;17.75;13.88;;;16.30;82.80;;;;;;5087695;28;20462;-70
2021/09/27 04:35:50;;;;;;;15.93;14.33;;;16.30;83.20;;;;;;5086391;28;20028;-70
2021/09/27 04:38:17;;;;;;;18.05;15.15;;;16.40;83.40;;;;;;5085087;28;20381;-70
2021/09/27 04:41:17;;;;;;;16.50;14.70;;;16.40;83.70;;;;;;5089757;28;20466;-70
2021/09/27 04:43:57;;;;;;;15.88;13.55;;;16.50;84.00;;;;;;5087076;28;20097;-70
2021/09/27 04:46:43;;;;;;;19.05;15.02;;;16.50;84.20;;;;;;5086083;28;20032;-70
2021/09/27 04:49:46;;;;;;;17.70;14.90;;;16.50;84.20;;;;;;5086574;28;20477;-70
2021/09/27 04:52:32;;;;;;;18.00;14.40;;;16.60;84.40;;;;;;5088844;28;20099;-70
2021/09/27 04:55:05;;;;;;;17.75;15.45;;;16.60;84.50;;;;;;5090619;28;20495;-70
2021/09/27 04:57:43;;;;;;;17.40;14.57;;;16.60;84.80;;;;;;5088912;28;20542;-71
2021/09/27 05:00:21;;;;;;;16.10;14.40;;;16.60;84.90;;;;;;5091576;28;20530;-71
2021/09/27 05:02:55;;;;;;;16.70;14.98;;;16.60;84.90;;;;;;5087623;28;20055;-71
2021/09/27 05:05:47;;;;;;;15.82;14.13;;;16.70;85.00;;;;;;5091497;28;20118;-71
2021/09/27 05:08:22;;;;;;;16.35;14.55;;;16.70;85.10;;;;;;5081361;28;20043;-71
2021/09/27 05:11:13;;;;;;;15.88;14.25;;;16.70;85.10;;;;;;5087037;28;20115;-71
2021/09/27 05:13:49;;;;;;;19.02;14.35;;;16.70;85.20;;;;;;5090132;28;20020;-71
2021/09/27 05:16:33;;;;;;;15.20;13.70;;;16.70;85.30;;;;;;5090825;28;20066;-71
2021/09/27 05:19:37;;;;;;;15.77;13.85;;;16.70;85.40;;;;;;5083432;28;20027;-72
2021/09/27 05:22:33;;;;;;;17.77;14.88;;;16.70;85.50;;;;;;5088380;28;20020;-71
2021/09/27 05:25:14;;;;;;;16.55;14.07;;;16.70;85.40;;;;;;5091785;28;20028;-71
2021/09/27 05:27:58;;;;;;;16.73;14.20;;;16.70;85.40;;;;;;5093418;28;20063;-71
2021/09/27 05:30:45;;;;;;;18.55;14.23;;;16.70;85.50;;;;;;5091081;28;20385;-71
2021/09/27 05:33:38;;;;;;;14.60;13.15;;;16.70;85.60;;;;;;5090749;28;20066;-71
2021/09/27 05:36:41;;;;;;;16.65;14.63;;;16.70;85.60;;;;;;5088737;28;20384;-71
2021/09/27 05:39:25;;;;;;;15.63;14.00;;;16.70;85.70;;;;;;5087604;28;20028;-71
2021/09/27 05:42:12;;;;;;;19.42;14.35;;;16.70;85.80;;;;;;5091005;28;20039;-71
2021/09/27 05:45:05;;;;;;;16.52;14.80;;;16.70;85.90;;;;;;5090062;28;20036;-71
2021/09/27 05:47:46;;;;;;;15.32;13.80;;;16.70;86.10;;;;;;5090977;28;20209;-71
2021/09/27 05:50:20;;;;;;;16.58;13.32;;;16.70;86.30;;;;;;5088305;28;20032;-71
2021/09/27 05:53:10;;;;;;;15.88;14.20;;;16.70;86.40;;;;;;5087193;28;20016;-71
2021/09/27 05:55:42;;;;;;;15.45;13.43;;;16.70;86.60;;;;;;5087435;28;20039;-71
2021/09/27 05:58:15;;;;;;;17.80;15.63;;;16.70;86.70;;;;;;5089199;28;20161;-71
2021/09/27 06:00:49;;;;;;;;;;;16.70;86.80;;;;;;5071438;28;20035;-71
2021/09/27 06:03:27;;;;;;;16.85;15.07;;;16.70;86.40;;;;;;5073527;28;19908;-71
2021/09/27 06:06:26;;;;;;;18.65;14.95;;;16.70;86.70;;;;;;5085657;28;20021;-71
2021/09/27 06:09:15;;;;;;;18.40;14.27;;;16.80;86.90;;;;;;5083172;28;20024;-71
2021/09/27 06:11:53;;;;;;;17.20;15.48;;;16.80;87.00;;;;;;5046486;28;20079;-71
2021/09/27 06:14:19;;;;;;;16.45;13.60;;;16.80;87.20;;;;;;5050465;28;20029;-71
2021/09/27 06:17:04;;;;;;;17.27;15.00;;;16.80;87.30;;;;;;5047173;28;20480;-71
2021/09/27 06:20:06;;;;;;;19.67;15.57;;;16.80;87.30;;;;;;5044304;28;20044;-71
2021/09/27 06:22:50;;;;;;;18.98;15.75;;;16.80;87.40;;;;;;5046682;28;20036;-72
2021/09/27 06:25:34;;;;;;;16.70;14.90;;;16.90;87.50;;;;;;5046470;28;20368;-71
2021/09/27 06:28:22;;;;;;;19.58;15.35;;;16.90;87.60;;;;;;5044597;28;20384;-71
2021/09/27 06:31:12;;;;;;;19.83;14.48;;;16.90;87.60;;;;;;5043109;28;20087;-71
2021/09/27 06:33:56;;;;;;;17.58;15.73;;;16.90;87.60;;;;;;5044711;28;20448;-70
2021/09/27 06:36:24;;;;;;;19.48;15.20;;;16.90;87.80;;;;;;5047383;28;20033;-70
2021/09/27 06:38:56;;;;;;;21.98;15.50;;;16.90;87.70;;;;;;5048349;28;20021;-70
2021/09/27 06:41:23;;;;;;;18.13;15.80;;;16.90;87.80;;;;;;5045092;28;20042;-71
2021/09/27 06:43:49;;;;;;;17.40;15.13;;;16.90;87.80;;;;;;5045794;28;20282;-71
2021/09/27 06:46:15;;;;;;;18.20;15.70;;;16.90;87.80;;;;;;5044821;28;20029;-70
2021/09/27 06:48:41;;;;;;;18.23;16.20;;;16.90;87.80;;;;;;5030332;28;20533;-70
2021/09/27 06:51:07;;;;;;;18.17;14.73;;;16.90;88.00;;;;;;5045630;28;20029;-71
2021/09/27 06:53:33;;;;;;;17.35;15.55;;;16.90;88.00;;;;;;5045945;28;20034;-71
2021/09/27 06:55:59;;;;;;;17.20;15.02;;;17.00;88.20;;;;;;5048571;28;20132;-71
2021/09/27 06:58:25;;;;;;;16.73;14.85;;;17.00;88.30;;;;;;5048115;28;20043;-70
2021/09/27 07:00:53;;;;;;;18.35;15.90;;;17.00;88.30;;;;;;5044880;28;20036;-70
2021/09/27 07:03:19;;;;;;;18.30;15.48;;;17.00;88.40;;;;;;5042322;28;20040;-71
2021/09/27 07:05:45;;;;;;;21.67;16.17;;;17.10;88.40;;;;;;5042549;28;20099;-70
2021/09/27 07:08:12;;;;;;;19.38;15.50;;;17.10;88.40;;;;;;5044163;28;20041;-70
2021/09/27 07:10:38;;;;;;;22.85;16.10;;;17.10;88.50;;;;;;5067170;28;20494;-71
2021/09/27 07:13:04;;;;;;;18.58;15.25;;;17.10;88.60;;;;;;5088107;28;20027;-70
2021/09/27 07:15:30;;;;;;;22.50;16.38;;;17.20;88.70;;;;;;5085366;28;20036;-71
2021/09/27 07:17:55;;;;;;;19.00;15.35;;;17.20;88.60;;;;;;5088554;28;20077;-71
2021/09/27 07:20:25;;;;;;;18.95;14.82;;;17.20;88.70;;;;;;5085985;28;20028;-71
2021/09/27 07:22:52;;;;;;;16.48;14.68;;;17.30;88.80;;;;;;5085756;28;20031;-71
2021/09/27 07:25:18;;;;;;;16.55;14.65;;;17.30;88.90;;;;;;5086804;28;20047;-71
2021/09/27 07:27:44;;;;;;;19.88;15.35;;;17.40;89.00;;;;;;5089716;28;20151;-71
2021/09/27 07:30:12;;;;;;;17.40;15.65;;;17.50;88.90;;;;;;5089611;28;20023;-71
2021/09/27 07:32:38;;;;;;;17.80;15.25;;;17.50;88.90;;;;;;5088800;28;20036;-71
2021/09/27 07:35:05;;;;;;;18.27;15.13;;;17.60;88.90;;;;;;5090556;28;20039;-71
2021/09/27 07:37:31;;;;;;;17.08;15.27;;;17.60;88.90;;;;;;5089730;28;20510;-71
2021/09/27 07:39:57;;;;;;;16.63;14.43;;;17.70;89.20;;;;;;5089175;28;20031;-71
2021/09/27 07:42:22;;;;;;;17.50;14.55;;;17.70;88.80;;;;;;5088761;28;20040;-69
2021/09/27 07:44:48;;;;;;;16.85;15.10;;;17.80;88.60;;;;;;5089989;28;20119;-70
2021/09/27 07:47:14;;;;;;;16.85;15.18;;;17.80;88.70;;;;;;5085878;28;20028;-70
2021/09/27 07:49:39;;;;;;;16.13;13.73;;;17.90;88.60;;;;;;5084886;28;20605;-69
2021/09/27 07:52:06;;;;;;;16.15;14.45;;;17.90;88.50;;;;;;5088607;28;20028;-71
2021/09/27 07:54:32;;;;;;;18.52;15.13;;;17.80;88.50;;;;;;5087101;28;20028;-69
2021/09/27 07:56:58;;;;;;;17.45;14.68;;;17.90;88.50;;;;;;5087442;28;20135;-69
2021/09/27 07:59:24;;;;;;;17.55;15.73;;;17.80;88.50;;;;;;5086558;28;20114;-69
2021/09/27 08:01:49;;;;;;;17.05;15.23;;;17.80;88.40;;;;;;5087953;28;20107;-69
2021/09/27 08:04:16;;;;;;;18.35;16.45;;;17.80;88.60;;;;;;5082187;28;20495;-69
2021/09/27 08:06:43;;;;;;;20.38;15.90;;;17.80;88.60;;;;;;5085339;28;20445;-69
2021/09/27 08:09:10;;;;;;;15.57;13.98;;;17.80;88.70;;;;;;5082239;28;20114;-70
2021/09/27 08:11:40;;;;;;;19.17;15.27;;;17.90;88.90;;;;;;5088533;28;20534;-69
2021/09/27 08:14:06;;;;;;;17.50;14.02;;;17.90;88.70;;;;;;5082337;28;21004;-69
2021/09/27 08:16:31;;;;;;;16.13;14.43;;;18.00;88.80;;;;;;5067584;28;20054;-71
2021/09/27 08:18:58;;;;;;;18.02;14.98;;;18.00;88.60;;;;;;5081251;28;20401;-71
2021/09/27 08:21:24;;;;;;;19.90;15.57;;;18.00;88.60;;;;;;5078696;28;20032;-72
2021/09/27 08:23:50;;;;;;;16.00;14.18;;;18.10;88.50;;;;;;5083791;28;20101;-72
2021/09/27 08:26:17;;;;;;;19.05;15.50;;;18.10;88.70;;;;;;5082257;28;20424;-71
2021/09/27 08:28:43;;;;;;;16.27;14.65;;;18.20;88.20;;;;;;5084136;28;20478;-72
2021/09/27 08:31:19;;;;;;;16.65;14.95;;;18.20;88.10;;;;;;5084836;28;20032;-71
2021/09/27 08:33:47;;;;;;;17.33;14.65;;;18.30;87.90;;;;;;5088212;28;20031;-72
2021/09/27 08:36:16;;;;;;;17.30;15.32;;;18.40;87.90;;;;;;5078634;28;20033;-71
2021/09/27 08:38:43;;;;;;;15.60;13.65;;;18.40;87.80;;;;;;5089266;28;20041;-69
2021/09/27 08:41:30;;;;;;;14.73;13.25;;;18.50;87.90;;;;;;5087922;28;20085;-69
2021/09/27 08:44:25;;;;;;;15.07;13.48;;;18.50;87.90;;;;;;5088015;28;20479;-69
2021/09/27 08:46:56;;;;;;;18.15;13.18;;;18.60;88.00;;;;;;5056364;28;20036;-68
2021/09/27 08:49:43;;;;;;;18.60;15.20;;;18.70;88.30;;;;;;5084653;28;20031;-69
2021/09/27 08:52:14;;;;;;;16.40;12.73;;;18.70;87.10;;;;;;5087669;28;20089;-69
2021/09/27 08:54:41;;;;;;;16.08;14.25;;;18.70;87.20;;;;;;5089874;28;20091;-69
2021/09/27 08:57:27;;;;;;;18.08;13.50;;;18.70;86.80;;;;;;5086076;28;20026;-69
2021/09/27 09:00:02;;;;;;;14.13;12.70;;;18.80;87.20;;;;;;5087149;28;20040;-70
2021/09/27 09:02:33;;;;;;;14.77;13.27;;;18.80;86.90;;;;;;5087217;28;20146;-72
2021/09/27 09:05:19;;;;;;;14.77;13.20;;;18.80;86.60;;;;;;5085849;28;20031;-72
2021/09/27 09:08:01;;;;;;;14.65;13.15;;;18.90;86.10;;;;;;5086791;28;20447;-69
2021/09/27 09:11:04;;;;;;;15.70;12.63;;;18.90;86.30;;;;;;5086213;28;20036;-72
2021/09/27 09:13:54;;;;;;;14.77;13.15;;;19.00;86.20;;;;;;5087372;28;20047;-72
2021/09/27 09:16:23;;;;;;;14.48;12.75;;;18.90;85.90;;;;;;5089212;28;20023;-72
2021/09/27 09:18:56;;;;;;;17.08;12.52;;;18.90;86.20;;;;;;5089180;28;20032;-72
2021/09/27 09:21:36;;;;;;;14.10;12.60;;;18.90;86.20;;;;;;5087770;28;20042;-72
2021/09/27 09:24:07;;;;;;;14.38;12.77;;;18.90;85.90;;;;;;5087643;28;20408;-72
2021/09/27 09:26:36;;;;;;;13.00;11.70;;;18.90;85.90;;;;;;5088119;28;20038;-72
2021/09/27 09:29:04;;;;;;;13.77;12.27;;;18.80;86.20;;;;;;5090594;28;20020;-70
2021/09/27 09:31:40;;;;;;;14.98;13.27;;;18.80;86.00;;;;;;5084592;28;20020;-69
2021/09/27 09:34:06;;;;;;;12.90;11.00;;;18.80;86.20;;;;;;5086692;28;20043;-70
2021/09/27 09:36:31;;;;;;;14.75;12.57;;;18.90;86.10;;;;;;5076271;28;20021;-70
2021/09/27 09:38:59;;;;;;;15.02;12.57;;;18.90;86.10;;;;;;5071442;28;20457;-69
2021/09/27 09:41:43;;;;;;;13.75;11.20;;;18.90;86.10;;;;;;5080550;28;21130;-70
2021/09/27 09:44:26;;;;;;;14.15;11.85;;;18.90;86.00;;;;;;5083443;28;20060;-72
2021/09/27 09:47:08;;;;;;;;;;;18.90;85.90;;;;;;5076901;28;20036;-72
2021/09/27 09:49:51;;;;;;;11.70;10.57;;;19.00;85.80;;;;;;5073074;28;19973;-71
2021/09/27 09:52:52;;;;;;;12.50;11.20;;;19.00;86.00;;;;;;5080436;28;20486;-71
2021/09/27 09:55:42;;;;;;;12.90;10.35;;;19.10;85.70;;;;;;5086509;28;20020;-73
2021/09/27 09:58:28;;;;;;;14.15;11.20;;;19.20;85.60;;;;;;5081603;28;20363;-73
2021/09/27 10:01:07;;;;;;;13.25;11.50;;;19.30;85.30;;;;;;5077014;28;20386;-73
2021/09/27 10:03:36;;;;;;;12.50;11.15;;;19.30;85.00;;;;;;5076787;28;20055;-73
2021/09/27 10:06:37;;;;;;;12.80;11.10;;;19.40;85.10;;;;;;5076892;28;20114;-72
2021/09/27 10:09:06;;;;;;;13.88;10.73;;;19.40;85.20;;;;;;5068390;28;20046;-72
2021/09/27 10:11:40;;;;;;;13.05;10.70;;;19.50;84.80;;;;;;5073835;28;20119;-73
2021/09/27 10:14:28;;;;;;;11.70;10.48;;;19.50;84.90;;;;;;5082904;28;20089;-73
2021/09/27 10:17:06;;;;;;;17.52;10.52;;;19.50;85.10;;;;;;5078353;28;20051;-72
2021/09/27 10:19:40;;;;;;;12.25;10.38;;;19.60;84.60;;;;;;5088586;28;20490;-73
2021/09/27 10:22:14;;;;;;;13.25;9.75;;;19.70;84.30;;;;;;5082594;28;20016;-73
2021/09/27 10:24:47;;;;;;;11.88;10.38;;;19.70;83.70;;;;;;5075985;28;20082;-71
2021/09/27 10:27:18;;;;;;;12.13;9.75;;;19.80;82.80;;;;;;5070167;28;20028;-71
2021/09/27 10:29:45;;;;;;;10.50;9.40;;;19.70;83.30;;;;;;5076460;28;20055;-71
2021/09/27 10:32:45;;;;;;;10.07;8.57;;;19.70;83.20;;;;;;5092370;28;20286;-72
2021/09/27 10:35:29;;;;;;;11.10;8.10;;;19.70;82.80;;;;;;5031921;28;20112;-71
2021/09/27 10:38:09;;;;;;;10.70;7.43;;;19.60;82.90;;;;;;5068271;28;20450;-71
2021/09/27 10:40:35;;;;;;;10.85;7.13;;;19.60;83.20;;;;;;5080260;28;20016;-72
2021/09/27 10:43:05;;;;;;;9.73;6.70;;;19.60;82.60;;;;;;5087398;28;20032;-72
2021/09/27 10:45:30;;;;;;;9.55;6.65;;;19.60;82.60;;;;;;5074869;28;20465;-71
2021/09/27 10:47:59;;;;;;;11.43;6.47;;;19.60;82.70;;;;;;5079980;28;20033;-71
2021/09/27 10:50:41;;;;;;;9.20;6.50;;;19.60;82.50;;;;;;5072638;28;20035;-72
2021/09/27 10:53:22;;;;;;;9.15;6.55;;;19.60;81.70;;;;;;5084662;28;20020;-71
2021/09/27 10:56:06;;;;;;;7.85;5.72;;;19.60;81.60;;;;;;5079505;28;20023;-71
2021/09/27 10:58:58;;;;;;;11.93;6.55;;;19.60;82.00;;;;;;5084706;28;20065;-71
2021/09/27 11:01:51;;;;;;;8.88;5.68;;;19.60;81.30;;;;;;5084202;28;20035;-73
2021/09/27 11:04:36;;;;;;;6.93;5.22;;;19.60;81.80;;;;;;5072991;28;20042;-72
2021/09/27 11:07:41;;;;;;;10.23;5.45;;;19.60;82.30;;;;;;5080225;28;20479;-73
2021/09/27 11:10:26;;;;;;;7.57;6.43;;;19.60;82.00;;;;;;5082313;28;20558;-73
2021/09/27 11:12:54;;;;;;;8.13;5.93;;;19.70;82.00;;;;;;5080510;28;20020;-72
2021/09/27 11:15:20;;;;;;;8.80;5.47;;;19.70;81.90;;;;;;5081486;28;20074;-72
2021/09/27 11:17:49;;;;;;;7.28;6.32;;;19.70;82.30;;;;;;5084013;28;20031;-72
2021/09/27 11:20:29;;;;;;;8.00;5.90;;;19.80;82.00;;;;;;5079940;28;20032;-72
2021/09/27 11:22:55;;;;;;;7.70;6.18;;;19.80;82.00;;;;;;5086113;28;20082;-73
2021/09/27 11:25:20;;;;;;;7.80;5.95;;;19.90;82.20;;;;;;5076412;28;20041;-73
2021/09/27 11:28:14;;;;;;;7.30;6.45;;;19.90;82.00;;;;;;5079813;28;20094;-73
2021/09/27 11:30:58;;;;;;;6.82;5.82;;;19.90;82.20;;;;;;5080607;28;20081;-72
2021/09/27 11:33:26;;;;;;;7.88;6.25;;;19.90;82.10;;;;;;5078601;28;20024;-72
2021/09/27 11:35:56;;;;;;;6.22;5.43;;;19.90;82.40;;;;;;5080651;28;20528;-72
2021/09/27 11:38:30;;;;;;;10.25;5.93;;;20.00;82.10;;;;;;5083600;28;20028;-72
2021/09/27 11:41:22;;;;;;;7.97;5.90;;;20.00;81.70;;;;;;5075573;28;20031;-73
2021/09/27 11:44:08;;;;;;;8.50;5.28;;;20.00;82.60;;;;;;5082411;28;20024;-74
2021/09/27 11:46:39;;;;;;;10.60;5.85;;;20.00;81.70;;;;;;5078928;28;20093;-73
2021/09/27 11:49:31;;;;;;;8.48;5.10;;;20.10;81.30;;;;;;5081873;28;20112;-73
2021/09/27 11:52:15;;;;;;;8.18;5.68;;;20.10;81.60;;;;;;5081896;28;20379;-72
2021/09/27 11:55:10;;;;;;;8.63;5.00;;;20.20;81.30;;;;;;5073793;28;20039;-72
2021/09/27 11:57:55;;;;;;;6.90;4.75;;;20.30;81.40;;;;;;5081365;28;20021;-72
2021/09/27 12:00:28;;;;;;;7.85;5.00;;;20.30;81.00;;;;;;5075765;28;20312;-71
2021/09/27 12:03:16;;;;;;;9.13;5.00;;;20.40;80.10;;;;;;5080468;28;20408;-72
2021/09/27 12:06:00;;;;;;;7.35;4.25;;;20.40;79.30;;;;;;5078709;28;20157;-72
2021/09/27 12:08:36;;;;;;;4.53;3.60;;;20.40;79.40;;;;;;5086178;28;20095;-73
2021/09/27 12:11:09;;;;;;;7.15;3.47;;;20.40;79.30;;;;;;5076857;28;20053;-73
2021/09/27 12:13:39;;;;;;;6.63;3.15;;;20.40;77.90;;;;;;5081882;28;20028;-73
2021/09/27 12:16:15;;;;;;;4.90;3.00;;;20.40;77.30;;;;;;5083180;28;20052;-74
2021/09/27 12:18:44;;;;;;;5.80;3.22;;;20.40;76.90;;;;;;5079872;28;20078;-73
2021/09/27 12:21:30;;;;;;;4.15;2.70;;;20.40;77.00;;;;;;5082394;28;20035;-72
2021/09/27 12:24:05;;;;;;;5.45;3.17;;;20.40;77.50;;;;;;5077272;28;20025;-73
2021/09/27 12:26:35;;;;;;;3.17;2.78;;;20.40;76.00;;;;;;5082747;28;20108;-74
2021/09/27 12:29:09;;;;;;;5.00;2.95;;;20.40;76.00;;;;;;5078101;28;20032;-74
2021/09/27 12:31:36;;;;;;;37.10;4.55;;;20.40;76.00;;;;;;5075170;28;20024;-74
2021/09/27 12:34:14;;;;;;;2.75;2.42;;;20.40;75.20;;;;;;5078190;28;20039;-72
2021/09/27 12:36:40;;;;;;;4.30;2.67;;;20.40;75.80;;;;;;5079494;28;20035;-72
2021/09/27 12:39:06;;;;;;;4.60;2.72;;;20.40;75.20;;;;;;5076562;28;20031;-72
2021/09/27 12:41:32;;;;;;;4.88;2.70;;;20.40;75.10;;;;;;5079883;28;20099;-72
2021/09/27 12:44:28;;;;;;;4.25;2.70;;;20.50;75.60;;;;;;5083898;28;20439;-72
2021/09/27 12:46:56;;;;;;;3.33;2.30;;;20.50;75.50;;;;;;5052227;28;20528;-72
2021/09/27 12:49:33;;;;;;;7.93;2.72;;;20.60;76.00;;;;;;5075915;28;20028;-71
2021/09/27 12:52:01;;;;;;;3.47;2.63;;;20.60;75.50;;;;;;5078079;28;20024;-71
2021/09/27 12:54:43;;;;;;;4.65;3.00;;;20.70;75.00;;;;;;5083371;28;20137;-72
2021/09/27 12:57:33;;;;;;;5.88;3.22;;;20.80;75.50;;;;;;5082838;28;20028;-72
2021/09/27 13:00:00;;;;;;;3.22;2.92;;;20.80;75.30;;;;;;5076733;28;20097;-72
2021/09/27 13:02:35;;;;;;;4.72;3.22;;;20.80;75.80;;;;;;5068742;28;20373;-73
2021/09/27 13:05:24;;;;;;;4.40;2.83;;;20.80;75.70;;;;;;5082950;28;20061;-72
2021/09/27 13:07:53;;;;;;;6.07;3.03;;;20.80;75.70;;;;;;5080015;28;20043;-73
2021/09/27 13:10:29;;;;;;;7.50;3.22;;;20.80;76.00;;;;;;5085564;28;20063;-73
2021/09/27 13:13:06;;;;;;;5.60;3.50;;;20.80;76.60;;;;;;5080099;28;20055;-72
2021/09/27 13:15:55;;;;;;;3.45;3.15;;;20.80;76.60;;;;;;5086076;28;20019;-72
2021/09/27 13:18:37;;;;;;;4.97;3.67;;;20.80;76.10;;;;;;5080764;28;20024;-72
2021/09/27 13:21:12;;;;;;;5.03;3.35;;;20.80;75.50;;;;;;5077894;28;20031;-73
2021/09/27 13:23:53;;;;;;;5.20;3.67;;;20.70;75.60;;;;;;5082072;28;20036;-72
2021/09/27 13:26:35;;;;;;;3.47;3.00;;;20.70;75.90;;;;;;5078918;28;20016;-73